createdAt,value
2022-08-03T00:01:25.309Z,989.9
2022-08-03T00:06:44.311Z,989.8
2022-08-03T00:12:03.306Z,989.8
2022-08-03T00:17:22.720Z,989.8
2022-08-03T00:22:53.533Z,989.8
2022-08-03T00:28:12.019Z,989.8
2022-08-03T00:33:19.748Z,989.8
2022-08-03T00:38:38.802Z,989.8
2022-08-03T00:43:58.440Z,989.8
2022-08-03T00:49:17.268Z,989.8
2022-08-03T00:54:36.275Z,989.7
2022-08-03T00:59:55.421Z,989.7
2022-08-03T01:05:14.401Z,989.7
2022-08-03T01:10:45.113Z,989.7
2022-08-03T01:15:52.878Z,989.7
2022-08-03T01:21:12.563Z,989.6
2022-08-03T01:26:32.274Z,989.6
2022-08-03T01:32:52.068Z,989.6
2022-08-03T01:37:21.378Z,989.6
2022-08-03T01:42:29.157Z,989.6
2022-08-03T01:47:48.525Z,989.6
2022-08-03T01:53:08.167Z,989.5
2022-08-03T01:58:27.819Z,989.5
2022-08-03T02:03:59.631Z,989.4
2022-08-03T02:09:05.941Z,989.4
2022-08-03T02:14:25.607Z,989.4
2022-08-03T02:22:58.658Z,989.4
2022-08-03T02:27:15.192Z,989.4
2022-08-03T02:30:23.047Z,989.4
2022-08-03T02:35:42.415Z,989.4
2022-08-03T02:41:02.101Z,989.4
2022-08-03T02:46:21.254Z,989.4
2022-08-03T02:51:40.322Z,989.4
2022-08-03T02:56:59.651Z,989.4
2022-08-03T03:02:18.636Z,989.4
2022-08-03T03:10:53.148Z,989.3
2022-08-03T03:12:56.425Z,989.3
2022-08-03T03:18:18.924Z,989.3
2022-08-03T03:23:34.831Z,989.4
2022-08-03T03:28:53.981Z,989.4
2022-08-03T03:34:13.206Z,989.4
2022-08-03T03:39:32.594Z,989.4
2022-08-03T03:44:51.829Z,989.5
2022-08-03T03:50:22.675Z,989.5
2022-08-03T03:55:30.197Z,989.5
2022-08-03T04:00:49.319Z,989.5
2022-08-03T04:06:08.415Z,989.5
2022-08-03T04:11:27.451Z,989.5
2022-08-03T04:16:46.490Z,989.5
2022-08-03T04:22:06.015Z,989.5
2022-08-03T04:27:25.101Z,989.5
2022-08-03T04:32:45.988Z,989.5
2022-08-03T04:38:04.030Z,989.5
2022-08-03T04:43:23.750Z,989.5
2022-08-03T04:48:44.650Z,989.6
2022-08-03T04:54:02.419Z,989.6
2022-08-03T04:59:21.189Z,989.6
2022-08-03T05:07:54.226Z,989.6
2022-08-03T05:10:01.643Z,989.6
2022-08-03T05:15:18.965Z,989.7
2022-08-03T05:20:38.337Z,989.6
2022-08-03T05:25:57.270Z,989.6
2022-08-03T05:31:16.532Z,989.6
2022-08-03T05:36:35.807Z,989.6
2022-08-03T05:41:55.038Z,989.5
2022-08-03T05:47:14.552Z,989.5
2022-08-03T05:52:33.636Z,989.5
2022-08-03T05:57:52.371Z,989.5
2022-08-03T06:03:11.027Z,989.4
2022-08-03T06:08:30.017Z,989.4
2022-08-03T06:13:48.774Z,989.4
2022-08-03T06:19:08.092Z,989.4
2022-08-03T06:24:26.960Z,989.4
2022-08-03T06:29:46.088Z,989.4
2022-08-03T06:35:04.889Z,989.4
2022-08-03T06:40:24.511Z,989.4
2022-08-03T06:45:42.643Z,989.4
2022-08-03T06:56:21.244Z,989.5
2022-08-03T07:01:40.289Z,989.4
2022-08-03T07:06:59.383Z,989.4
2022-08-03T07:12:18.614Z,989.4
2022-08-03T07:17:37.158Z,989.4
2022-08-03T07:22:56.539Z,989.3
2022-08-03T07:31:34.325Z,989.3
2022-08-03T07:40:14.671Z,989.2
2022-08-03T07:44:19.217Z,989.2
2022-08-03T07:49:31.849Z,989.2
2022-08-03T07:54:51.176Z,989.1
2022-08-03T08:00:10.123Z,989.1
2022-08-03T08:05:28.992Z,989.1
2022-08-03T08:10:58.048Z,989
2022-08-03T08:16:07.579Z,989
2022-08-03T08:24:40.593Z,989
2022-08-03T08:28:57.151Z,988.9
2022-08-03T08:33:22.840Z,988.8
2022-08-03T08:42:47.927Z,988.8
2022-08-03T08:48:03.500Z,988.7
2022-08-03T08:53:25.469Z,988.7
2022-08-03T08:58:39.316Z,988.7
2022-08-03T09:03:58.714Z,988.7
2022-08-03T09:09:28.539Z,988.7
2022-08-03T09:17:51.394Z,988.6
2022-08-03T09:25:24.150Z,988.6
2022-08-03T09:30:35.185Z,988.6
2022-08-03T09:35:53.895Z,988.6
2022-08-03T09:41:11.216Z,988.6
2022-08-03T09:46:41.014Z,988.5
2022-08-03T09:55:03.113Z,988.5
2022-08-03T09:57:08.901Z,988.4
2022-08-03T10:07:46.434Z,988.3
2022-08-03T10:17:36.189Z,988.3
2022-08-03T10:21:50.061Z,988.2
2022-08-03T10:25:55.552Z,988.2
2022-08-03T10:34:21.929Z,988.1
2022-08-03T10:39:41.076Z,988.1
2022-08-03T10:45:10.134Z,988
2022-08-03T10:53:33.188Z,988
2022-08-03T10:57:50.035Z,987.9
2022-08-03T11:06:22.748Z,987.8
2022-08-03T11:11:35.441Z,987.8
2022-08-03T11:16:54.750Z,987.8
2022-08-03T11:22:14.294Z,987.7
2022-08-03T11:27:33.782Z,987.7
2022-08-03T11:36:06.845Z,987.7
2022-08-03T11:38:12.736Z,987.6
2022-08-03T11:43:32.088Z,987.6
2022-08-03T11:48:51.303Z,987.6
2022-08-03T11:54:10.225Z,987.6
2022-08-03T11:59:29.555Z,987.5
2022-08-03T12:08:06.289Z,987.5
2022-08-03T12:20:46.224Z,987.3
2022-08-03T12:26:05.535Z,987.2
2022-08-03T12:31:24.177Z,987.2
2022-08-03T12:36:43.115Z,987.2
2022-08-03T12:42:02.153Z,987.1
2022-08-03T12:47:21.215Z,987.1
2022-08-03T12:52:39.883Z,987
2022-08-03T12:57:59.019Z,987
2022-08-03T13:03:39.852Z,987
2022-08-03T13:08:36.639Z,987
2022-08-03T13:17:09.693Z,986.9
2022-08-03T13:19:15.350Z,986.9
2022-08-03T13:24:33.848Z,986.9
2022-08-03T13:30:02.852Z,986.9
2022-08-03T13:35:12.208Z,986.9
2022-08-03T13:40:33.452Z,986.9
2022-08-03T13:45:53.676Z,986.8
2022-08-03T13:51:11.924Z,986.8
2022-08-03T13:56:41.323Z,986.8
2022-08-03T14:05:02.406Z,986.8
2022-08-03T14:07:08.007Z,986.7
2022-08-03T14:12:26.853Z,986.7
2022-08-03T14:16:43.549Z,986.7
2022-08-03T14:23:43.870Z,986.6
2022-08-03T14:29:02.693Z,986.5
2022-08-03T14:34:22.162Z,986.5
2022-08-03T14:40:01.075Z,986.4
2022-08-03T14:45:04.753Z,986.4
2022-08-03T14:50:35.466Z,986.4
2022-08-03T14:55:51.436Z,986.3
2022-08-03T15:00:58.479Z,986.3
2022-08-03T15:06:17.266Z,986.3
2022-08-03T15:11:36.218Z,986.2
2022-08-03T15:16:54.923Z,986.2
2022-08-03T15:22:14.501Z,986.1
2022-08-03T15:27:33.770Z,986.1
2022-08-03T15:32:53.323Z,986
2022-08-03T15:38:12.641Z,986
2022-08-03T15:43:32.088Z,986
2022-08-03T15:52:05.164Z,986
2022-08-03T15:54:10.318Z,986
2022-08-03T15:59:29.652Z,985.9
2022-08-03T16:04:48.468Z,985.9
2022-08-03T16:10:07.354Z,985.8
2022-08-03T16:15:26.645Z,985.8
2022-08-03T16:20:46.019Z,985.7
2022-08-03T16:26:08.978Z,985.8
2022-08-03T16:31:34.146Z,985.7
2022-08-03T16:39:57.206Z,985.7
2022-08-03T16:47:22.051Z,985.6
2022-08-03T16:52:41.239Z,985.6
2022-08-03T16:58:00.535Z,985.6
2022-08-03T17:03:20.731Z,985.6
2022-08-03T17:08:38.057Z,985.6
2022-08-03T17:13:57.012Z,985.6
2022-08-03T17:19:16.605Z,985.6
2022-08-03T17:24:37.084Z,985.6
2022-08-03T17:29:55.363Z,985.6
2022-08-03T17:35:15.037Z,985.7
2022-08-03T17:40:33.852Z,985.6
2022-08-03T17:45:54.672Z,985.7
2022-08-03T17:51:15.368Z,985.7
2022-08-03T17:56:38.658Z,985.8
2022-08-03T18:01:58.378Z,985.9
2022-08-03T18:07:11.521Z,985.9
2022-08-03T18:15:43.194Z,986
2022-08-03T18:20:01.541Z,986
2022-08-03T18:24:16.257Z,986
2022-08-03T18:28:32.789Z,986
2022-08-03T18:34:16.057Z,986
2022-08-03T18:39:05.466Z,986
2022-08-03T18:44:37.927Z,986
2022-08-03T18:49:43.571Z,986.1
2022-08-03T18:55:07.372Z,986.1
2022-08-03T19:00:24.141Z,986.1
2022-08-03T19:05:57.908Z,986.2
2022-08-03T19:11:00.665Z,986.2
2022-08-03T19:16:18.782Z,986.3
2022-08-03T19:21:37.920Z,986.3
2022-08-03T19:26:57.327Z,986.4
2022-08-03T19:32:16.450Z,986.4
2022-08-03T19:37:38.782Z,986.5
2022-08-03T19:42:54.198Z,986.5
2022-08-03T19:48:13.499Z,986.5
2022-08-03T19:53:34.716Z,986.5
2022-08-03T19:58:53.177Z,986.5
2022-08-03T20:04:11.049Z,986.5
2022-08-03T20:09:30.675Z,986.5
2022-08-03T20:14:50.048Z,986.6
2022-08-03T20:20:09.686Z,986.6
2022-08-03T20:25:37.834Z,986.5
2022-08-03T20:30:47.769Z,986.5
2022-08-03T20:39:20.664Z,986.5
2022-08-03T20:41:25.766Z,986.5
2022-08-03T20:46:53.055Z,986.5
2022-08-03T20:52:03.958Z,986.5
2022-08-03T20:57:23.201Z,986.6
2022-08-03T21:02:42.149Z,986.6
2022-08-03T21:11:27.238Z,986.6
2022-08-03T21:15:59.779Z,986.7
2022-08-03T21:18:39.961Z,986.7
2022-08-03T21:23:58.767Z,986.7
2022-08-03T21:29:18.247Z,986.6
2022-08-03T21:34:37.079Z,986.6
2022-08-03T21:40:05.982Z,986.6
2022-08-03T21:45:17.549Z,986.6
2022-08-03T21:50:34.687Z,986.6
2022-08-03T21:55:53.779Z,986.6
2022-08-03T22:01:23.603Z,986.6
2022-08-03T22:06:31.766Z,986.6
2022-08-03T22:11:50.857Z,986.6
2022-08-03T22:17:09.687Z,986.6
2022-08-03T22:22:28.904Z,986.6
2022-08-03T22:27:58.883Z,986.7
2022-08-03T22:33:08.343Z,986.7
2022-08-03T22:38:26.205Z,986.7
2022-08-03T22:43:45.362Z,986.6
2022-08-03T22:49:04.365Z,986.7
2022-08-03T22:54:23.445Z,986.7
2022-08-03T23:02:56.518Z,986.8
2022-08-03T23:07:13.083Z,986.8
2022-08-03T23:10:20.153Z,986.8
2022-08-03T23:15:39.844Z,986.8
2022-08-03T23:20:59.033Z,986.9
2022-08-03T23:26:18.057Z,986.8
2022-08-03T23:31:37.223Z,986.9
2022-08-03T23:36:56.354Z,986.9
2022-08-03T23:42:15.487Z,986.9
2022-08-03T23:47:46.170Z,987
2022-08-03T23:52:54.058Z,986.9
2022-08-03T23:58:13.182Z,987
